Time;durP1;ratioP1;P1;durP2;ratioP2;P2;SDS_P1;SDS_P2;PMS_P1;PMS_P2;Temp;Humidity;BMP_temperature;BMP_pressure;BME280_temperature;BME280_humidity;BME280_pressure;Samples;Min_cycle;Max_cycle;Signal;HPM_P1;HPM_P2
2023/05/26 00:00:14;;;;;;;21.02;6.10;;;;;;;;;;5092622;28;20027;-72
2023/05/26 00:02:39;;;;;;;21.67;4.93;;;;;;;;;;5092457;28;20028;-72
2023/05/26 00:05:07;;;;;;;14.48;4.93;;;;;;;;;;5092276;28;20047;-70
2023/05/26 00:07:33;;;;;;;11.95;4.45;;;;;;;;;;5092115;28;20032;-71
2023/05/26 00:09:58;;;;;;;12.88;4.85;;;;;;;;;;5090976;28;20039;-71
2023/05/26 00:12:24;;;;;;;13.27;4.70;;;;;;;;;;5092331;28;20481;-72
2023/05/26 00:14:49;;;;;;;18.10;4.50;;;;;;;;;;5092247;28;20024;-72
2023/05/26 00:17:18;;;;;;;18.20;4.60;;;;;;;;;;5092126;28;20073;-72
2023/05/26 00:19:43;;;;;;;19.67;4.95;;;;;;;;;;5092194;28;20051;-66
2023/05/26 00:22:11;;;;;;;17.25;4.50;;;;;;;;;;5092020;28;20454;-72
2023/05/26 00:24:36;;;;;;;13.73;4.28;;;;;;;;;;5092266;28;20473;-71
2023/05/26 00:27:02;;;;;;;13.75;4.13;;;;;;;;;;5094959;28;20081;-72
2023/05/26 00:29:27;;;;;;;13.43;4.53;;;;;;;;;;5095984;28;20024;-71
2023/05/26 00:31:53;;;;;;;17.45;4.78;;;;;;;;;;5095806;28;20032;-67
2023/05/26 00:34:19;;;;;;;18.23;4.85;;;;;;;;;;5095543;28;20075;-71
2023/05/26 00:36:44;;;;;;;13.40;4.35;;;;;;;;;;5095641;28;20376;-70
2023/05/26 00:39:10;;;;;;;18.95;4.57;;;;;;;;;;5103750;28;20362;-72
2023/05/26 00:41:36;;;;;;;17.00;4.45;;;;;;;;;;5094503;28;20024;-72
2023/05/26 00:44:01;;;;;;;17.73;4.75;;;;;;;;;;5095763;28;20064;-72
2023/05/26 00:46:29;;;;;;;15.25;4.30;;;;;;;;;;5095462;28;20079;-73
2023/05/26 00:48:54;;;;;;;11.85;4.00;;;;;;;;;;5095301;28;20465;-73
2023/05/26 00:51:20;;;;;;;12.18;3.92;;;;;;;;;;5095646;28;20058;-73
2023/05/26 00:53:46;;;;;;;15.20;4.90;;;;;;;;;;5095457;28;20040;-72
2023/05/26 00:56:14;;;;;;;18.30;4.00;;;;;;;;;;5095544;28;20386;-69
2023/05/26 00:58:39;;;;;;;16.75;5.35;;;;;;;;;;5095363;28;20024;-71
2023/05/26 01:01:05;;;;;;;12.88;4.00;;;;;;;;;;5095368;28;20027;-73
2023/05/26 01:03:31;;;;;;;19.77;5.10;;;;;;;;;;5095243;28;20028;-72
2023/05/26 01:05:56;;;;;;;13.23;4.50;;;;;;;;;;5095230;28;20043;-73
2023/05/26 01:08:22;;;;;;;19.15;4.88;;;;;;;;;;5095328;28;20089;-71
2023/05/26 01:10:47;;;;;;;14.55;4.47;;;;;;;;;;5095279;28;20024;-72
2023/05/26 01:13:17;;;;;;;12.20;4.28;;;;;;;;;;5095127;28;20028;-73
2023/05/26 01:15:51;;;;;;;24.02;5.07;;;;;;;;;;5095190;28;20035;-73
2023/05/26 01:19:00;;;;;;;18.88;4.88;;;;;;;;;;5094739;28;20062;-73
2023/05/26 01:21:27;;;;;;;17.77;4.18;;;;;;;;;;5012288;28;20480;-72
2023/05/26 01:24:08;;;;;;;14.50;4.15;;;;;;;;;;5012799;28;20136;-73
2023/05/26 01:26:36;;;;;;;;;;;;;;;;;;5013107;28;20034;-72
2023/05/26 01:29:09;;;;;;;17.55;3.92;;;;;;;;;;5012738;28;19913;-72
2023/05/26 01:31:38;;;;;;;16.40;4.38;;;;;;;;;;5012618;28;20037;-70
2023/05/26 01:34:04;;;;;;;16.02;4.47;;;;;;;;;;5012299;28;20030;-73
2023/05/26 01:36:30;;;;;;;20.65;4.55;;;;;;;;;;5012129;28;20429;-72
2023/05/26 01:38:55;;;;;;;17.80;4.45;;;;;;;;;;5018499;28;20046;-70
2023/05/26 01:41:33;;;;;;;15.00;4.03;;;;;;;;;;5013136;28;20033;-70
2023/05/26 01:44:02;;;;;;;18.58;4.55;;;;;;;;;;5012529;28;20084;-72
2023/05/26 01:46:48;;;;;;;12.77;4.15;;;;;;;;;;5012260;28;20139;-70
2023/05/26 01:49:15;;;;;;;16.00;4.38;;;;;;;;;;5012403;28;20034;-70
2023/05/26 01:51:46;;;;;;;13.43;4.30;;;;;;;;;;5012140;28;20100;-72
2023/05/26 01:54:16;;;;;;;16.70;4.60;;;;;;;;;;5012330;28;20062;-73
2023/05/26 01:56:43;;;;;;;15.15;5.40;;;;;;;;;;5012199;28;20034;-72
2023/05/26 01:59:10;;;;;;;18.17;4.72;;;;;;;;;;5061878;28;20032;-70
2023/05/26 02:01:36;;;;;;;16.95;4.68;;;;;;;;;;5073866;28;20104;-73
2023/05/26 02:04:01;;;;;;;17.00;5.07;;;;;;;;;;5074003;28;20396;-71
2023/05/26 02:06:27;;;;;;;15.32;4.00;;;;;;;;;;5073856;28;20032;-72
2023/05/26 02:08:52;;;;;;;17.27;4.13;;;;;;;;;;5073829;28;20059;-72
2023/05/26 02:11:18;;;;;;;12.60;4.22;;;;;;;;;;5073805;28;20035;-72
2023/05/26 02:13:45;;;;;;;14.05;4.90;;;;;;;;;;5073796;28;20107;-72
2023/05/26 02:16:13;;;;;;;17.38;4.50;;;;;;;;;;5073485;28;20438;-73
2023/05/26 02:18:38;;;;;;;19.25;4.95;;;;;;;;;;5073622;28;20130;-71
2023/05/26 02:21:04;;;;;;;16.23;4.30;;;;;;;;;;5073569;28;20469;-73
2023/05/26 02:23:29;;;;;;;16.13;4.57;;;;;;;;;;5073572;28;20032;-72
2023/05/26 02:25:55;;;;;;;10.13;4.00;;;;;;;;;;5073395;28;20367;-73
2023/05/26 02:28:20;;;;;;;17.35;4.30;;;;;;;;;;5073312;28;20025;-68
2023/05/26 02:30:45;;;;;;;13.25;4.28;;;;;;;;;;5073292;28;20028;-71
2023/05/26 02:33:11;;;;;;;18.85;4.97;;;;;;;;;;5073246;28;20029;-69
2023/05/26 02:35:36;;;;;;;18.35;4.82;;;;;;;;;;5088819;28;20031;-72
2023/05/26 02:38:02;;;;;;;11.93;4.18;;;;;;;;;;5093436;28;20040;-70
2023/05/26 02:40:27;;;;;;;20.60;4.97;;;;;;;;;;5101470;28;20040;-71
2023/05/26 02:42:53;;;;;;;15.45;4.80;;;;;;;;;;5093615;28;20205;-69
2023/05/26 02:45:18;;;;;;;19.98;5.05;;;;;;;;;;5091283;28;20074;-67
2023/05/26 02:47:44;;;;;;;19.50;4.97;;;;;;;;;;5093303;28;20028;-66
2023/05/26 02:50:10;;;;;;;14.77;5.75;;;;;;;;;;5092893;28;20035;-72
2023/05/26 02:52:35;;;;;;;21.90;5.90;;;;;;;;;;5093239;28;20036;-73
2023/05/26 02:55:00;;;;;;;20.52;7.05;;;;;;;;;;5093174;28;20020;-71
2023/05/26 02:57:26;;;;;;;16.83;6.85;;;;;;;;;;5092887;28;20373;-72
2023/05/26 02:59:51;;;;;;;15.80;5.85;;;;;;;;;;5092709;28;20102;-72
2023/05/26 03:02:17;;;;;;;35.45;18.25;;;;;;;;;;5092917;28;20034;-68
2023/05/26 03:04:42;;;;;;;23.65;10.40;;;;;;;;;;5093063;28;20028;-71
2023/05/26 03:07:07;;;;;;;24.10;7.53;;;;;;;;;;5092925;28;20023;-69
2023/05/26 03:09:34;;;;;;;23.08;6.57;;;;;;;;;;5092858;28;20028;-72
2023/05/26 03:11:59;;;;;;;17.95;6.38;;;;;;;;;;5092981;28;20104;-72
2023/05/26 03:14:25;;;;;;;17.27;6.72;;;;;;;;;;5092738;28;20490;-70
2023/05/26 03:16:51;;;;;;;18.55;6.10;;;;;;;;;;5092800;28;20093;-70
2023/05/26 03:19:17;;;;;;;14.07;5.47;;;;;;;;;;5092646;28;20032;-70
2023/05/26 03:21:42;;;;;;;21.55;6.07;;;;;;;;;;5092628;28;20093;-70
2023/05/26 03:24:08;;;;;;;20.55;6.30;;;;;;;;;;5092826;28;20039;-69
2023/05/26 03:26:33;;;;;;;15.02;5.25;;;;;;;;;;5092814;28;20032;-72
2023/05/26 03:28:59;;;;;;;18.98;5.53;;;;;;;;;;5092308;28;20028;-69
2023/05/26 03:31:26;;;;;;;14.75;5.85;;;;;;;;;;5092716;28;20089;-71
2023/05/26 03:33:51;;;;;;;19.25;5.97;;;;;;;;;;5092523;28;20490;-72
2023/05/26 03:36:18;;;;;;;22.20;5.45;;;;;;;;;;5092554;28;20034;-70
2023/05/26 03:38:43;;;;;;;19.08;5.93;;;;;;;;;;5097945;28;20059;-70
2023/05/26 03:41:09;;;;;;;22.15;5.88;;;;;;;;;;5094965;28;20024;-71
2023/05/26 03:43:34;;;;;;;16.00;5.35;;;;;;;;;;5092440;28;20046;-70
2023/05/26 03:46:00;;;;;;;15.85;4.68;;;;;;;;;;5092102;28;20043;-71
2023/05/26 03:48:26;;;;;;;22.35;5.47;;;;;;;;;;5092397;28;20024;-72
2023/05/26 03:50:51;;;;;;;23.85;5.50;;;;;;;;;;5092490;28;20024;-68
2023/05/26 03:53:17;;;;;;;18.85;5.07;;;;;;;;;;5092556;28;20024;-67
2023/05/26 03:55:42;;;;;;;23.23;5.50;;;;;;;;;;5092083;28;20131;-71
2023/05/26 03:58:08;;;;;;;17.17;5.03;;;;;;;;;;5092204;28;20028;-72
2023/05/26 04:00:33;;;;;;;18.45;4.88;;;;;;;;;;5092981;28;20081;-72
2023/05/26 04:03:00;;;;;;;20.23;4.47;;;;;;;;;;5096459;28;20022;-69
2023/05/26 04:05:25;;;;;;;20.52;5.97;;;;;;;;;;5096455;28;20020;-72
2023/05/26 04:07:51;;;;;;;17.02;4.28;;;;;;;;;;5096344;28;20116;-70
2023/05/26 04:10:17;;;;;;;18.80;5.53;;;;;;;;;;5095884;28;20032;-72
2023/05/26 04:12:42;;;;;;;23.60;5.55;;;;;;;;;;5096141;28;20026;-71
2023/05/26 04:15:09;;;;;;;14.98;5.05;;;;;;;;;;5096153;28;20028;-72
2023/05/26 04:17:35;;;;;;;18.77;4.97;;;;;;;;;;5096264;28;20028;-72
2023/05/26 04:20:00;;;;;;;14.60;5.25;;;;;;;;;;5096237;28;20089;-73
2023/05/26 04:22:26;;;;;;;19.05;5.15;;;;;;;;;;5096062;28;20406;-73
2023/05/26 04:24:51;;;;;;;23.17;5.57;;;;;;;;;;5094769;28;20465;-72
2023/05/26 04:27:17;;;;;;;18.40;5.43;;;;;;;;;;5095601;28;20031;-73
2023/05/26 04:29:42;;;;;;;15.88;4.65;;;;;;;;;;5095843;28;20032;-73
2023/05/26 04:32:11;;;;;;;17.10;5.30;;;;;;;;;;5095902;28;20024;-70
2023/05/26 04:34:38;;;;;;;17.63;5.00;;;;;;;;;;5095754;28;20454;-73
2023/05/26 04:37:04;;;;;;;21.23;4.65;;;;;;;;;;5095619;28;20020;-72
2023/05/26 04:39:31;;;;;;;16.88;4.95;;;;;;;;;;5103652;28;20020;-66
2023/05/26 04:41:57;;;;;;;22.85;4.65;;;;;;;;;;5095598;28;20354;-68
2023/05/26 04:44:24;;;;;;;21.45;4.50;;;;;;;;;;5095838;28;20107;-64
2023/05/26 04:46:50;;;;;;;18.45;4.88;;;;;;;;;;5095571;28;20048;-63
2023/05/26 04:49:16;;;;;;;24.88;4.97;;;;;;;;;;5095666;28;20036;-66
2023/05/26 04:51:42;;;;;;;18.02;4.28;;;;;;;;;;5095566;28;20078;-72
2023/05/26 04:54:07;;;;;;;16.90;3.95;;;;;;;;;;5095714;28;20031;-73
2023/05/26 04:56:33;;;;;;;15.27;4.30;;;;;;;;;;5095421;28;20028;-72
2023/05/26 04:58:58;;;;;;;23.40;5.18;;;;;;;;;;5095402;28;20035;-71
2023/05/26 05:01:24;;;;;;;23.35;4.80;;;;;;;;;;5095294;28;20475;-67
2023/05/26 05:03:50;;;;;;;24.55;5.63;;;;;;;;;;5095452;28;20073;-73
2023/05/26 05:06:15;;;;;;;19.95;4.25;;;;;;;;;;5095323;28;20028;-65
2023/05/26 05:08:41;;;;;;;21.40;4.57;;;;;;;;;;5095080;28;20081;-65
2023/05/26 05:11:06;;;;;;;19.38;4.45;;;;;;;;;;5094748;28;20141;-64
2023/05/26 05:13:32;;;;;;;20.75;4.50;;;;;;;;;;5095008;28;20383;-66
2023/05/26 05:15:58;;;;;;;24.30;5.28;;;;;;;;;;5094804;28;20024;-66
2023/05/26 05:18:24;;;;;;;25.92;5.35;;;;;;;;;;5093744;28;20024;-64
2023/05/26 05:20:50;;;;;;;23.73;4.18;;;;;;;;;;5095070;28;20111;-64
2023/05/26 05:23:15;;;;;;;20.42;4.57;;;;;;;;;;5093640;28;20453;-67
2023/05/26 05:25:41;;;;;;;17.88;4.80;;;;;;;;;;5094301;28;20032;-69
2023/05/26 05:28:08;;;;;;;24.13;4.85;;;;;;;;;;5095068;28;20031;-67
2023/05/26 05:30:34;;;;;;;19.90;4.28;;;;;;;;;;5094732;28;20081;-65
2023/05/26 05:32:59;;;;;;;15.80;3.65;;;;;;;;;;5094821;28;20020;-67
2023/05/26 05:35:25;;;;;;;20.40;5.18;;;;;;;;;;5094502;28;20032;-71
2023/05/26 05:37:55;;;;;;;19.20;4.05;;;;;;;;;;5094192;28;20380;-72
2023/05/26 05:40:21;;;;;;;26.73;4.95;;;;;;;;;;5102378;28;20027;-70
2023/05/26 05:42:46;;;;;;;22.48;4.80;;;;;;;;;;5094681;28;20454;-72
2023/05/26 05:45:12;;;;;;;15.68;3.88;;;;;;;;;;5094332;28;20032;-69
2023/05/26 05:47:37;;;;;;;20.85;5.22;;;;;;;;;;5093131;28;20469;-71
2023/05/26 05:50:03;;;;;;;22.80;5.07;;;;;;;;;;5094440;28;20078;-68
2023/05/26 05:52:28;;;;;;;19.83;5.05;;;;;;;;;;5093951;28;20131;-68
2023/05/26 05:54:54;;;;;;;18.00;4.32;;;;;;;;;;5093701;28;20103;-64
2023/05/26 05:57:20;;;;;;;20.10;4.40;;;;;;;;;;5085684;28;20070;-68
2023/05/26 05:59:45;;;;;;;10.93;3.25;;;;;;;;;;5085745;28;20074;-69
2023/05/26 06:02:11;;;;;;;23.25;4.03;;;;;;;;;;5093889;28;20556;-70
2023/05/26 06:04:36;;;;;;;16.75;3.90;;;;;;;;;;5093752;28;20024;-68
2023/05/26 06:07:02;;;;;;;18.35;4.30;;;;;;;;;;5093521;28;20024;-71
2023/05/26 06:09:27;;;;;;;22.63;4.20;;;;;;;;;;5113101;28;20377;-67
2023/05/26 06:11:52;;;;;;;19.98;4.20;;;;;;;;;;5114139;28;20440;-63
2023/05/26 06:14:18;;;;;;;471.55;245.43;;;;;;;;;;5113793;28;20039;-63
2023/05/26 06:16:43;;;;;;;16.85;3.80;;;;;;;;;;5096348;28;20024;-69
2023/05/26 06:19:09;;;;;;;21.13;3.63;;;;;;;;;;5093519;28;20032;-72
2023/05/26 06:21:34;;;;;;;21.50;4.55;;;;;;;;;;5093707;28;20024;-69
2023/05/26 06:24:00;;;;;;;22.05;4.57;;;;;;;;;;5092527;28;20028;-64
2023/05/26 06:26:25;;;;;;;14.45;3.92;;;;;;;;;;5093400;28;20024;-63
2023/05/26 06:28:51;;;;;;;23.33;4.10;;;;;;;;;;5093316;28;20086;-64
2023/05/26 06:31:16;;;;;;;21.60;3.97;;;;;;;;;;5094262;28;20473;-67
2023/05/26 06:33:42;;;;;;;18.50;4.78;;;;;;;;;;5109649;28;20104;-65
2023/05/26 06:36:07;;;;;;;24.85;4.25;;;;;;;;;;5098070;28;20475;-65
2023/05/26 06:38:33;;;;;;;23.33;4.70;;;;;;;;;;5102541;28;20031;-68
2023/05/26 06:40:58;;;;;;;14.00;3.75;;;;;;;;;;5110311;28;20020;-65
2023/05/26 06:43:24;;;;;;;19.05;5.07;;;;;;;;;;5095960;27;20028;-64
2023/05/26 06:45:49;;;;;;;16.52;4.53;;;;;;;;;;5108785;28;20032;-67
2023/05/26 06:48:15;;;;;;;23.90;5.13;;;;;;;;;;5099923;28;20020;-64
2023/05/26 06:50:41;;;;;;;15.00;3.95;;;;;;;;;;5101849;28;20031;-63
2023/05/26 06:53:06;;;;;;;25.88;4.53;;;;;;;;;;5092170;28;20016;-64
2023/05/26 06:55:32;;;;;;;35.72;6.28;;;;;;;;;;5092887;28;20035;-67
2023/05/26 06:57:57;;;;;;;18.33;4.45;;;;;;;;;;5092333;28;20016;-66
2023/05/26 07:00:23;;;;;;;35.88;6.28;;;;;;;;;;5108128;28;20404;-66
2023/05/26 07:02:48;;;;;;;21.95;5.30;;;;;;;;;;5092788;28;20480;-64
2023/05/26 07:05:14;;;;;;;23.40;4.93;;;;;;;;;;5092822;28;20062;-64
2023/05/26 07:07:39;;;;;;;21.52;5.28;;;;;;;;;;5092729;28;20470;-64
2023/05/26 07:10:05;;;;;;;23.15;5.10;;;;;;;;;;5091405;28;20032;-72
2023/05/26 07:12:33;;;;;;;21.00;4.38;;;;;;;;;;5092793;28;20497;-64
2023/05/26 07:14:58;;;;;;;22.83;4.65;;;;;;;;;;5110096;28;20539;-65
2023/05/26 07:17:24;;;;;;;19.13;4.05;;;;;;;;;;5093845;28;20107;-64
2023/05/26 07:19:49;;;;;;;23.50;4.72;;;;;;;;;;5092287;28;20469;-64
2023/05/26 07:22:15;;;;;;;20.88;4.57;;;;;;;;;;5092671;28;20058;-66
2023/05/26 07:24:40;;;;;;;17.80;4.47;;;;;;;;;;5092973;28;20131;-66
2023/05/26 07:27:06;;;;;;;18.55;4.82;;;;;;;;;;5092930;28;20034;-64
2023/05/26 07:29:33;;;;;;;25.08;5.35;;;;;;;;;;5092086;28;20036;-64
2023/05/26 07:31:58;;;;;;;21.38;4.30;;;;;;;;;;5092073;28;20381;-75
2023/05/26 07:34:24;;;;;;;13.43;4.30;;;;;;;;;;5091359;28;20028;-76
2023/05/26 07:36:49;;;;;;;23.75;4.75;;;;;;;;;;5089982;28;20020;-77
2023/05/26 07:39:14;;;;;;;19.40;4.50;;;;;;;;;;5099522;28;20505;-73
2023/05/26 07:41:40;;;;;;;14.02;3.78;;;;;;;;;;5091459;28;20052;-75
2023/05/26 07:44:05;;;;;;;23.65;4.93;;;;;;;;;;5091333;28;20113;-75
2023/05/26 07:46:31;;;;;;;16.30;3.85;;;;;;;;;;5089951;28;20110;-75
2023/05/26 07:48:56;;;;;;;16.45;4.07;;;;;;;;;;5089769;28;20362;-76
2023/05/26 07:51:22;;;;;;;18.42;3.80;;;;;;;;;;5090733;28;20046;-76
2023/05/26 07:53:47;;;;;;;27.88;6.65;;;;;;;;;;5090965;28;20031;-72
2023/05/26 07:56:12;;;;;;;23.48;4.95;;;;;;;;;;5090095;28;20043;-75
2023/05/26 07:58:39;;;;;;;19.90;4.38;;;;;;;;;;5090441;28;20052;-64
2023/05/26 08:01:06;;;;;;;20.73;4.60;;;;;;;;;;5090822;28;20028;-64
2023/05/26 08:03:32;;;;;;;16.67;4.22;;;;;;;;;;5096255;28;20026;-68
2023/05/26 08:05:58;;;;;;;17.10;4.43;;;;;;;;;;5110980;28;20096;-66
2023/05/26 08:08:23;;;;;;;19.38;4.43;;;;;;;;;;5111151;28;20464;-65
2023/05/26 08:10:49;;;;;;;16.92;4.60;;;;;;;;;;5111520;28;20049;-65
2023/05/26 08:13:14;;;;;;;19.35;4.55;;;;;;;;;;5111127;28;20112;-75
2023/05/26 08:15:40;;;;;;;19.77;4.75;;;;;;;;;;5111531;28;20016;-76
2023/05/26 08:18:05;;;;;;;15.38;4.13;;;;;;;;;;5111149;28;20460;-77
2023/05/26 08:20:30;;;;;;;15.70;4.20;;;;;;;;;;5111221;28;20031;-76
2023/05/26 08:22:58;;;;;;;19.83;4.18;;;;;;;;;;5111051;28;20023;-65
2023/05/26 08:25:24;;;;;;;13.10;3.92;;;;;;;;;;5110906;28;20393;-62
2023/05/26 08:27:49;;;;;;;11.73;3.53;;;;;;;;;;5111228;28;20053;-70
2023/05/26 08:30:14;;;;;;;13.02;4.05;;;;;;;;;;5111494;28;20039;-65
2023/05/26 08:32:43;;;;;;;19.67;4.20;;;;;;;;;;5111306;28;20028;-65
2023/05/26 08:35:08;;;;;;;13.07;3.90;;;;;;;;;;5110304;28;20019;-64
2023/05/26 08:37:34;;;;;;;15.70;3.88;;;;;;;;;;5097890;28;20051;-62
2023/05/26 08:40:00;;;;;;;14.40;4.13;;;;;;;;;;5091041;28;20036;-70
2023/05/26 08:42:31;;;;;;;15.63;3.80;;;;;;;;;;5090679;28;20024;-62
2023/05/26 08:45:03;;;;;;;15.80;3.83;;;;;;;;;;5090154;28;20055;-74
2023/05/26 08:47:34;;;;;;;13.07;3.90;;;;;;;;;;5092455;28;20122;-62
2023/05/26 08:50:03;;;;;;;14.35;4.10;;;;;;;;;;5094187;28;20043;-62
2023/05/26 08:52:29;;;;;;;14.27;4.03;;;;;;;;;;5094526;28;20424;-63
2023/05/26 08:54:55;;;;;;;11.98;3.65;;;;;;;;;;5094175;28;20077;-63
2023/05/26 08:57:21;;;;;;;16.02;4.40;;;;;;;;;;5094176;28;20027;-64
2023/05/26 08:59:47;;;;;;;13.10;3.50;;;;;;;;;;5094097;28;20032;-66
2023/05/26 09:02:13;;;;;;;17.67;4.60;;;;;;;;;;5093844;28;20024;-63
2023/05/26 09:04:39;;;;;;;12.73;3.40;;;;;;;;;;5105132;28;20171;-63
2023/05/26 09:07:08;;;;;;;14.50;3.85;;;;;;;;;;5114296;28;20027;-63
2023/05/26 09:09:34;;;;;;;12.80;4.28;;;;;;;;;;5114053;28;20035;-64
2023/05/26 09:12:00;;;;;;;11.50;3.70;;;;;;;;;;5113726;28;20031;-65
2023/05/26 09:14:25;;;;;;;15.85;3.75;;;;;;;;;;5113941;28;20023;-65
2023/05/26 09:16:54;;;;;;;11.93;3.45;;;;;;;;;;5114022;28;20111;-72
2023/05/26 09:19:19;;;;;;;15.40;3.90;;;;;;;;;;5113884;28;20024;-74
2023/05/26 09:21:50;;;;;;;14.40;3.97;;;;;;;;;;5113977;28;20426;-72
2023/05/26 09:24:18;;;;;;;14.68;4.13;;;;;;;;;;5113825;28;20415;-74
2023/05/26 09:26:45;;;;;;;13.75;3.80;;;;;;;;;;5113709;28;20046;-74
2023/05/26 09:29:11;;;;;;;17.60;3.47;;;;;;;;;;5113526;28;20024;-74
2023/05/26 09:31:44;;;;;;;14.40;4.35;;;;;;;;;;5113653;28;20388;-71
2023/05/26 09:34:11;;;;;;;21.75;3.80;;;;;;;;;;5113558;28;20090;-74
2023/05/26 09:36:37;;;;;;;13.45;3.70;;;;;;;;;;5108388;28;20046;-74
2023/05/26 09:39:05;;;;;;;13.57;3.80;;;;;;;;;;5096777;28;20477;-73
2023/05/26 09:41:43;;;;;;;15.98;4.25;;;;;;;;;;5092762;28;20028;-73
2023/05/26 09:44:09;;;;;;;12.80;3.40;;;;;;;;;;5093295;28;20114;-71
2023/05/26 09:46:35;;;;;;;17.35;3.85;;;;;;;;;;5092385;28;20144;-74
2023/05/26 09:49:07;;;;;;;16.80;3.80;;;;;;;;;;5092576;28;20016;-73
2023/05/26 09:51:33;;;;;;;12.98;3.83;;;;;;;;;;5093045;28;20496;-74
2023/05/26 09:53:58;;;;;;;13.40;4.22;;;;;;;;;;5092973;28;20111;-73
2023/05/26 09:56:26;;;;;;;14.85;4.50;;;;;;;;;;5092984;28;20059;-74
2023/05/26 09:58:54;;;;;;;17.92;4.53;;;;;;;;;;5091715;28;20470;-74
2023/05/26 10:01:21;;;;;;;10.90;3.13;;;;;;;;;;5092604;28;20028;-74
2023/05/26 10:03:47;;;;;;;13.18;3.60;;;;;;;;;;5093492;28;20393;-74
2023/05/26 10:06:16;;;;;;;10.93;3.25;;;;;;;;;;5113348;28;20028;-74
2023/05/26 10:08:44;;;;;;;11.55;3.28;;;;;;;;;;5112772;28;20415;-75
2023/05/26 10:11:10;;;;;;;12.32;3.63;;;;;;;;;;5111431;28;20435;-73
2023/05/26 10:13:36;;;;;;;14.82;3.50;;;;;;;;;;5112966;28;20076;-75
2023/05/26 10:16:03;;;;;;;11.15;3.10;;;;;;;;;;5112354;28;20135;-70
2023/05/26 10:18:28;;;;;;;12.75;4.00;;;;;;;;;;5113000;27;20119;-75
2023/05/26 10:20:57;;;;;;;11.98;3.78;;;;;;;;;;5112625;27;20524;-73
2023/05/26 10:23:31;;;;;;;14.05;3.47;;;;;;;;;;5112837;28;20315;-74
2023/05/26 10:26:07;;;;;;;14.05;4.13;;;;;;;;;;5112578;28;20039;-74
2023/05/26 10:28:36;;;;;;;18.20;4.63;;;;;;;;;;5112490;28;20122;-75
2023/05/26 10:31:02;;;;;;;13.02;3.75;;;;;;;;;;5112134;28;20088;-72
2023/05/26 10:33:44;;;;;;;10.90;3.15;;;;;;;;;;5112513;28;20016;-74
2023/05/26 10:36:19;;;;;;;10.85;3.33;;;;;;;;;;5110857;28;20481;-74
2023/05/26 10:38:49;;;;;;;11.88;3.50;;;;;;;;;;5097719;28;20038;-73
2023/05/26 10:41:51;;;;;;;13.15;3.72;;;;;;;;;;5092875;28;20039;-74
2023/05/26 10:44:43;;;;;;;11.85;3.85;;;;;;;;;;5091619;28;20024;-75
2023/05/26 10:47:13;;;;;;;11.70;3.42;;;;;;;;;;5091572;28;20119;-70
2023/05/26 10:49:39;;;;;;;12.13;3.67;;;;;;;;;;5091908;28;20101;-69
2023/05/26 10:52:14;;;;;;;11.25;3.60;;;;;;;;;;5092028;28;20023;-74
2023/05/26 10:54:42;;;;;;;13.73;3.72;;;;;;;;;;5091843;28;20469;-74
2023/05/26 10:57:29;;;;;;;12.00;3.45;;;;;;;;;;5091808;28;20028;-74
2023/05/26 10:59:54;;;;;;;14.48;3.50;;;;;;;;;;5091698;28;20020;-75
2023/05/26 11:02:20;;;;;;;14.20;3.72;;;;;;;;;;5091779;28;20470;-74
2023/05/26 11:04:47;;;;;;;10.77;3.70;;;;;;;;;;5097091;28;20039;-73
2023/05/26 11:07:29;;;;;;;14.02;3.60;;;;;;;;;;5111885;28;20024;-71
2023/05/26 11:10:02;;;;;;;17.55;4.15;;;;;;;;;;5111192;28;20088;-73
2023/05/26 11:12:35;;;;;;;11.98;3.42;;;;;;;;;;5111832;28;20476;-72
2023/05/26 11:15:28;;;;;;;12.57;3.35;;;;;;;;;;5111181;28;20034;-74
2023/05/26 11:18:05;;;;;;;15.70;4.03;;;;;;;;;;5110543;28;20062;-75
2023/05/26 11:20:31;;;;;;;15.18;3.58;;;;;;;;;;5111539;28;20032;-74
2023/05/26 11:22:57;;;;;;;12.52;4.22;;;;;;;;;;5111703;28;20123;-73
2023/05/26 11:25:22;;;;;;;12.50;3.58;;;;;;;;;;5111348;28;20024;-75
2023/05/26 11:27:48;;;;;;;17.58;3.80;;;;;;;;;;5111736;28;20020;-74
2023/05/26 11:30:14;;;;;;;11.27;3.90;;;;;;;;;;5111176;28;20031;-74
2023/05/26 11:32:48;;;;;;;10.68;3.55;;;;;;;;;;5111613;28;20487;-74
2023/05/26 11:35:25;;;;;;;9.68;3.35;;;;;;;;;;5111270;28;20405;-71
2023/05/26 11:37:50;;;;;;;14.40;4.00;;;;;;;;;;5095736;28;20020;-72
2023/05/26 11:40:16;;;;;;;16.98;3.78;;;;;;;;;;5101787;28;20091;-75
2023/05/26 11:42:55;;;;;;;17.15;4.68;;;;;;;;;;5091057;28;20036;-71
2023/05/26 11:45:22;;;;;;;19.63;7.07;;;;;;;;;;5090874;28;20119;-74
2023/05/26 11:47:48;;;;;;;20.88;6.68;;;;;;;;;;5091067;28;20031;-73
2023/05/26 11:50:14;;;;;;;14.88;3.80;;;;;;;;;;5091130;28;20359;-73
2023/05/26 11:52:47;;;;;;;13.95;3.95;;;;;;;;;;5091074;28;20039;-75
2023/05/26 11:55:13;;;;;;;10.90;3.10;;;;;;;;;;5091006;28;20485;-71
2023/05/26 11:57:40;;;;;;;12.30;3.72;;;;;;;;;;5090565;28;20028;-75
2023/05/26 12:00:13;;;;;;;15.75;3.65;;;;;;;;;;5090907;28;20438;-72
2023/05/26 12:02:39;;;;;;;13.77;3.40;;;;;;;;;;5091011;28;20401;-73
2023/05/26 12:05:29;;;;;;;11.18;3.13;;;;;;;;;;5095370;28;20024;-72
2023/05/26 12:08:05;;;;;;;12.00;2.90;;;;;;;;;;5111305;28;20031;-71
2023/05/26 12:10:31;;;;;;;15.20;3.95;;;;;;;;;;5110633;28;20028;-69
2023/05/26 12:12:56;;;;;;;16.67;3.13;;;;;;;;;;5110730;28;20028;-67
2023/05/26 12:15:23;;;;;;;16.30;3.58;;;;;;;;;;5110839;28;20023;-72
2023/05/26 12:17:53;;;;;;;17.15;3.85;;;;;;;;;;5111143;28;20039;-70
2023/05/26 12:20:20;;;;;;;17.55;3.30;;;;;;;;;;5110908;28;20020;-74
2023/05/26 12:23:01;;;;;;;25.48;8.50;;;;;;;;;;5113513;28;20032;-68
2023/05/26 12:25:28;;;;;;;13.75;3.13;;;;;;;;;;5114585;27;20027;-73
2023/05/26 12:27:54;;;;;;;13.05;3.63;;;;;;;;;;5115097;28;20452;-64
2023/05/26 12:30:22;;;;;;;11.02;2.85;;;;;;;;;;5114627;28;20106;-64
2023/05/26 12:32:48;;;;;;;9.45;2.70;;;;;;;;;;5115138;27;20032;-63
2023/05/26 12:35:15;;;;;;;16.67;3.20;;;;;;;;;;5114305;28;20019;-63
2023/05/26 12:37:41;;;;;;;15.93;3.40;;;;;;;;;;5100737;28;20431;-64
2023/05/26 12:40:07;;;;;;;15.07;3.15;;;;;;;;;;5107851;28;20024;-66
2023/05/26 12:42:33;;;;;;;17.95;3.17;;;;;;;;;;5094134;28;20470;-63
2023/05/26 12:44:58;;;;;;;13.18;4.32;;;;;;;;;;5094150;28;20039;-62
2023/05/26 12:47:24;;;;;;;11.95;3.30;;;;;;;;;;5094140;28;20036;-62
2023/05/26 12:49:49;;;;;;;10.73;2.50;;;;;;;;;;5094279;28;20039;-65
2023/05/26 12:52:15;;;;;;;10.32;2.78;;;;;;;;;;5074099;28;20028;-63
2023/05/26 12:54:40;;;;;;;18.23;3.33;;;;;;;;;;5073588;28;20028;-63
2023/05/26 12:57:06;;;;;;;14.98;3.50;;;;;;;;;;5092639;28;20038;-63
2023/05/26 12:59:36;;;;;;;18.20;3.30;;;;;;;;;;5094017;28;20358;-65
2023/05/26 13:02:02;;;;;;;15.70;5.32;;;;;;;;;;5112069;28;20140;-63
2023/05/26 13:04:28;;;;;;;16.35;3.85;;;;;;;;;;5114341;28;20028;-63
2023/05/26 13:06:54;;;;;;;11.30;3.13;;;;;;;;;;5114082;27;20107;-68
2023/05/26 13:09:20;;;;;;;16.75;3.72;;;;;;;;;;5113840;28;20102;-64
2023/05/26 13:11:46;;;;;;;18.30;3.65;;;;;;;;;;5114072;28;20057;-62
2023/05/26 13:14:12;;;;;;;18.60;3.53;;;;;;;;;;5114365;27;20104;-64
2023/05/26 13:16:38;;;;;;;15.35;3.58;;;;;;;;;;5113838;28;20020;-67
2023/05/26 13:19:04;;;;;;;12.05;3.05;;;;;;;;;;5113994;28;20035;-66
2023/05/26 13:21:30;;;;;;;12.80;3.88;;;;;;;;;;5113869;27;20035;-69
2023/05/26 13:23:56;;;;;;;16.48;3.20;;;;;;;;;;5113721;28;20122;-65
2023/05/26 13:26:23;;;;;;;17.23;3.05;;;;;;;;;;5113813;28;20119;-66
2023/05/26 13:28:50;;;;;;;15.50;3.45;;;;;;;;;;5113879;28;20488;-65
2023/05/26 13:31:15;;;;;;;16.10;3.40;;;;;;;;;;5113335;28;20040;-69
2023/05/26 13:33:41;;;;;;;19.73;3.28;;;;;;;;;;5113350;28;20426;-71
2023/05/26 13:36:08;;;;;;;14.77;3.38;;;;;;;;;;5112147;28;20055;-65
2023/05/26 13:38:34;;;;;;;14.82;3.00;;;;;;;;;;5096959;28;20035;-64
2023/05/26 13:40:59;;;;;;;13.27;3.42;;;;;;;;;;5105533;28;20032;-67
2023/05/26 13:43:25;;;;;;;14.38;3.35;;;;;;;;;;5093228;28;20130;-70
2023/05/26 13:45:50;;;;;;;14.52;3.38;;;;;;;;;;5092994;28;20052;-63
2023/05/26 13:48:16;;;;;;;13.60;3.35;;;;;;;;;;5093080;28;20027;-68
2023/05/26 13:50:41;;;;;;;15.57;3.35;;;;;;;;;;5093086;28;20043;-68
2023/05/26 13:53:07;;;;;;;14.80;3.58;;;;;;;;;;5092714;28;20024;-63
2023/05/26 13:55:33;;;;;;;13.65;3.20;;;;;;;;;;5092822;28;20529;-68
2023/05/26 13:57:58;;;;;;;14.35;2.83;;;;;;;;;;5092772;28;20024;-74
2023/05/26 14:00:24;;;;;;;15.57;3.25;;;;;;;;;;5093279;28;20028;-68
2023/05/26 14:02:50;;;;;;;13.25;2.58;;;;;;;;;;5113130;28;20039;-71
2023/05/26 14:05:18;;;;;;;25.40;4.13;;;;;;;;;;5112890;28;20032;-69
2023/05/26 14:07:43;;;;;;;15.70;3.35;;;;;;;;;;5113456;28;20385;-67
2023/05/26 14:10:09;;;;;;;13.10;3.05;;;;;;;;;;5113090;28;20072;-72
2023/05/26 14:12:34;;;;;;;14.63;3.47;;;;;;;;;;5112779;28;20035;-66
2023/05/26 14:15:01;;;;;;;11.00;3.33;;;;;;;;;;5091711;28;20023;-65
2023/05/26 14:17:27;;;;;;;13.93;3.20;;;;;;;;;;5076639;28;20085;-64
2023/05/26 14:19:52;;;;;;;17.83;3.80;;;;;;;;;;5074483;28;20104;-63
2023/05/26 14:22:18;;;;;;;16.98;4.50;;;;;;;;;;5109028;28;20031;-63
2023/05/26 14:24:43;;;;;;;15.02;3.47;;;;;;;;;;5113860;28;20027;-68
2023/05/26 14:27:09;;;;;;;12.60;2.95;;;;;;;;;;5113197;28;20051;-67
2023/05/26 14:29:35;;;;;;;15.23;3.33;;;;;;;;;;5113351;28;20024;-67